Time;durP1;ratioP1;P1;durP2;ratioP2;P2;SDS_P1;SDS_P2;PMS_P1;PMS_P2;Temp;Humidity;BMP_temperature;BMP_pressure;BME280_temperature;BME280_humidity;BME280_pressure;Samples;Min_cycle;Max_cycle;Signal;HPM_P1;HPM_P2
2022/11/02 00:01:30;;;;;;;13.37;11.47;;;10.40;99.90;;;10.67;93.03;98536.78;5064426;28;21336;-69
2022/11/02 00:03:58;;;;;;;15.40;11.20;;;10.30;99.90;;;10.69;92.74;98540.94;5063067;28;20453;-70
2022/11/02 00:06:25;;;;;;;13.93;11.40;;;10.30;99.90;;;10.70;91.48;98548.00;5062953;28;20833;-70
2022/11/02 00:08:53;;;;;;;12.57;11.30;;;10.30;99.90;;;10.57;92.78;98542.56;5063579;28;20461;-70
2022/11/02 00:11:20;;;;;;;11.30;10.20;;;10.20;99.90;;;10.64;93.37;98554.22;5067218;28;20466;-70
2022/11/02 00:13:47;;;;;;;13.63;11.30;;;10.30;99.90;;;10.64;93.09;98546.09;5080001;28;20503;-69
2022/11/02 00:16:17;;;;;;;14.80;12.20;;;10.30;99.90;;;10.66;94.16;98538.63;5053904;28;20479;-70
2022/11/02 00:18:47;;;;;;;12.30;11.10;;;10.30;99.90;;;10.70;94.91;98552.56;5068266;28;20893;-70
2022/11/02 00:21:18;;;;;;;13.13;11.83;;;10.30;99.90;;;10.97;93.71;98553.47;5055993;28;20811;-71
2022/11/02 00:23:46;;;;;;;12.37;11.10;;;10.50;99.90;;;11.01;92.85;98551.19;5066080;28;20880;-69
2022/11/02 00:26:14;;;;;;;13.37;11.07;;;10.70;99.90;;;11.17;92.20;98544.56;5056941;28;20465;-70
2022/11/02 00:28:41;;;;;;;12.77;10.80;;;10.90;99.90;;;11.23;91.76;98546.44;5055166;28;20498;-69
2022/11/02 00:31:09;;;;;;;11.90;10.70;;;11.00;99.90;;;11.25;91.56;98547.06;5060696;28;20466;-70
2022/11/02 00:33:36;;;;;;;10.53;9.43;;;11.00;99.90;;;11.19;91.61;98553.31;5066566;28;20471;-71
2022/11/02 00:36:03;;;;;;;14.67;11.10;;;10.90;99.90;;;11.19;92.14;98551.41;5063952;28;20474;-70
2022/11/02 00:38:32;;;;;;;13.67;11.07;;;10.90;99.90;;;11.24;92.09;98556.22;5058056;28;20459;-70
2022/11/02 00:41:00;;;;;;;11.70;10.13;;;10.90;99.90;;;11.23;92.40;98556.44;5067420;28;20463;-71
2022/11/02 00:43:27;;;;;;;10.50;9.50;;;10.90;99.90;;;11.32;91.95;98561.44;5073349;28;20861;-70
2022/11/02 00:45:55;;;;;;;12.37;10.90;;;11.00;99.90;;;11.31;92.09;98548.94;5063149;28;20451;-69
2022/11/02 00:48:22;;;;;;;10.87;9.40;;;11.00;99.90;;;11.39;90.79;98568.72;5066684;28;21295;-69
2022/11/02 00:50:49;;;;;;;14.97;9.70;;;11.10;99.90;;;11.51;89.58;98563.50;5064716;28;20481;-70
2022/11/02 00:53:16;;;;;;;11.40;10.27;;;11.20;99.90;;;11.57;89.15;98562.69;5067236;28;20469;-71
2022/11/02 00:55:46;;;;;;;11.77;10.40;;;11.30;99.90;;;11.48;90.29;98562.06;5063803;28;20481;-71
2022/11/02 00:58:13;;;;;;;14.17;10.10;;;11.30;99.90;;;11.46;89.54;98561.44;5065723;28;20466;-70
2022/11/02 01:00:41;;;;;;;11.00;9.90;;;11.30;99.90;;;11.57;89.39;98577.03;5069347;28;20536;-71
2022/11/02 01:03:08;;;;;;;12.10;10.43;;;11.40;99.90;;;10.99;89.26;98505.41;5071005;28;20477;-71
2022/11/02 01:05:37;;;;;;;11.63;10.40;;;11.30;99.90;;;11.46;89.18;98577.69;5046612;28;20522;-69
2022/11/02 01:08:04;;;;;;;13.10;11.30;;;11.30;99.90;;;11.26;89.63;98588.47;5071804;28;20499;-70
2022/11/02 01:10:32;;;;;;;13.50;10.13;;;11.20;99.90;;;11.27;89.11;98569.31;5065467;28;20868;-72
2022/11/02 01:13:01;;;;;;;10.90;9.60;;;11.20;99.90;;;11.38;88.45;98569.75;5069394;28;20468;-69
2022/11/02 01:15:28;;;;;;;11.70;10.30;;;11.20;99.90;;;11.52;88.21;98567.88;5064734;28;20470;-69
2022/11/02 01:17:56;;;;;;;13.13;10.30;;;11.30;99.90;;;11.44;88.53;98564.34;5076297;28;20488;-70
2022/11/02 01:20:23;;;;;;;14.40;11.17;;;11.20;99.90;;;11.45;87.81;98576.03;5087855;28;20523;-71
2022/11/02 01:22:50;;;;;;;11.77;10.30;;;11.20;99.90;;;11.47;87.89;98565.81;5061649;28;21404;-71
2022/11/02 01:25:17;;;;;;;12.93;10.80;;;11.20;99.90;;;11.28;88.07;98559.34;5064267;28;20464;-69
2022/11/02 01:27:45;;;;;;;13.23;11.20;;;11.20;99.90;;;11.33;86.73;98579.34;5067906;28;20510;-69
2022/11/02 01:30:14;;;;;;;13.93;11.17;;;11.30;99.90;;;11.43;86.20;98559.13;5064792;28;20460;-70
2022/11/02 01:32:41;;;;;;;14.67;11.80;;;11.30;98.60;;;11.45;86.12;98566.00;5068439;28;21051;-69
2022/11/02 01:35:10;;;;;;;13.67;10.53;;;11.30;98.30;;;11.46;85.52;98567.69;5066866;28;20510;-70
2022/11/02 01:37:37;;;;;;;13.40;10.13;;;11.40;97.60;;;11.48;85.41;98559.38;5065213;28;20482;-69
2022/11/02 01:40:05;;;;;;;13.70;10.07;;;11.30;97.60;;;11.41;85.61;98547.69;5068722;28;20466;-69
2022/11/02 01:42:32;;;;;;;15.20;10.23;;;11.30;97.90;;;11.50;85.02;98559.13;5066910;28;20507;-70
2022/11/02 01:45:00;;;;;;;14.37;9.77;;;11.30;97.80;;;11.53;85.18;98559.56;5067307;28;20469;-69
2022/11/02 01:47:33;;;;;;;14.57;10.97;;;11.30;98.10;;;11.54;85.22;98555.81;5064880;28;20473;-70
2022/11/02 01:50:08;;;;;;;13.10;10.67;;;11.30;98.20;;;11.50;84.90;98559.13;5066899;28;20465;-70
2022/11/02 01:52:38;;;;;;;18.43;10.53;;;11.20;98.80;;;11.48;84.69;98554.78;5070939;28;20981;-72
2022/11/02 01:55:11;;;;;;;13.70;10.80;;;11.20;98.30;;;11.04;84.90;98494.00;5059410;28;20456;-70
2022/11/02 01:57:42;;;;;;;12.13;10.77;;;11.20;97.70;;;11.32;85.06;98561.44;5052366;28;20480;-70
2022/11/02 02:00:14;;;;;;;11.83;9.80;;;11.10;97.50;;;11.36;85.47;98553.72;5066569;28;20817;-70
2022/11/02 02:05:26;;;;;;;12.77;9.37;;;11.00;99.90;;;11.03;85.39;98536.44;5273261;22;20623;-71
2022/11/02 02:07:53;;;;;;;10.30;9.20;;;11.00;98.80;;;11.14;86.69;98555.78;4978259;28;20533;-71
2022/11/02 02:10:21;;;;;;;10.00;9.00;;;10.90;99.90;;;11.03;86.22;98539.13;4979457;28;20505;-69
2022/11/02 02:12:49;;;;;;;11.30;9.00;;;11.00;99.10;;;11.15;85.76;98539.34;4967802;28;20479;-71
2022/11/02 02:15:16;;;;;;;13.83;8.80;;;10.90;99.80;;;11.09;86.16;98550.16;4977691;28;20454;-71
2022/11/02 02:17:49;;;;;;;10.03;9.03;;;10.90;99.60;;;11.11;86.92;98548.94;4957078;28;20996;-70
2022/11/02 02:20:35;;;;;;;10.10;8.70;;;10.90;99.90;;;11.08;86.51;98548.50;4980598;28;20538;-69
2022/11/02 02:23:34;;;;;;;12.23;7.83;;;10.90;99.20;;;11.09;86.67;98550.16;4981604;28;20470;-71
2022/11/02 02:27:02;;;;;;;11.63;8.37;;;10.90;99.90;;;11.23;85.86;98546.44;4981548;28;20960;-69
2022/11/02 02:29:44;;;;;;;12.30;9.20;;;11.00;99.20;;;11.40;84.87;98546.88;4894630;29;21038;-71
2022/11/02 02:32:20;;;;;;;8.50;7.70;;;11.10;99.40;;;11.28;86.14;98543.94;4922050;29;21134;-70
2022/11/02 02:34:53;;;;;;;13.40;8.97;;;11.20;97.70;;;11.27;85.97;98542.28;4963993;28;20481;-71
2022/11/02 02:37:28;;;;;;;14.77;9.20;;;11.20;97.10;;;11.40;84.94;98546.03;4979982;28;20486;-70
2022/11/02 02:40:03;;;;;;;14.63;9.20;;;11.30;96.20;;;11.40;84.23;98537.91;4979027;28;20980;-72
2022/11/02 02:42:35;;;;;;;13.50;8.80;;;11.30;95.90;;;11.45;84.88;98532.72;4959781;28;21021;-70
2022/11/02 02:45:13;;;;;;;10.60;8.97;;;11.30;96.70;;;11.41;84.92;98532.31;4963867;28;20548;-71
2022/11/02 02:47:47;;;;;;;12.20;9.87;;;11.30;96.60;;;11.12;85.85;98523.56;4967307;28;20457;-71
2022/11/02 02:50:19;;;;;;;11.80;8.70;;;11.20;96.90;;;10.97;86.66;98531.84;4983291;28;20541;-70
2022/11/02 02:52:50;;;;;;;8.33;7.40;;;11.00;97.90;;;10.92;87.07;98523.53;4968054;28;20979;-70
2022/11/02 02:55:23;;;;;;;13.43;7.63;;;11.00;99.40;;;10.84;87.62;98529.09;4979471;28;20786;-70
2022/11/02 02:57:51;;;;;;;9.53;8.13;;;10.90;99.40;;;10.73;87.57;98527.84;4975751;28;20880;-70
2022/11/02 03:00:20;;;;;;;8.83;7.60;;;10.70;99.90;;;10.67;88.70;98532.19;4978707;28;20534;-71
2022/11/02 03:02:59;;;;;;;9.87;7.37;;;10.70;99.90;;;10.67;88.74;98528.66;4952662;28;21304;-71
2022/11/02 03:05:30;;;;;;;10.50;7.03;;;10.60;99.90;;;10.55;89.16;98523.03;4965425;28;20461;-70
2022/11/02 03:08:05;;;;;;;7.10;6.37;;;10.50;99.90;;;10.56;88.99;98530.09;4983130;28;20463;-71
2022/11/02 03:10:36;;;;;;;8.10;7.30;;;10.40;99.90;;;10.43;89.63;98526.31;4978546;28;20472;-71
2022/11/02 03:13:32;;;;;;;7.17;6.40;;;10.30;99.90;;;10.39;88.66;98519.63;4964359;28;20996;-70
2022/11/02 03:16:07;;;;;;;8.70;7.13;;;10.20;99.90;;;10.29;90.99;98521.84;4964960;28;20532;-71
2022/11/02 03:18:46;;;;;;;10.33;7.80;;;10.20;99.90;;;10.15;90.23;98521.78;4968858;28;21140;-70
2022/11/02 03:21:26;;;;;;;9.20;7.60;;;10.10;99.90;;;10.08;90.87;98504.69;4977195;28;20947;-71
2022/11/02 03:24:01;;;;;;;11.27;7.80;;;10.10;99.90;;;10.14;90.47;98522.81;4980942;28;20702;-70
2022/11/02 03:26:32;;;;;;;9.40;7.40;;;10.10;99.90;;;10.07;91.06;98528.19;4977776;28;20533;-70
2022/11/02 03:29:05;;;;;;;8.53;6.80;;;10.10;99.90;;;10.06;90.88;98513.03;4969771;28;21029;-71
2022/11/02 03:31:39;;;;;;;11.30;7.57;;;10.00;99.90;;;10.01;91.46;98514.66;4961102;28;20460;-71
2022/11/02 03:34:17;;;;;;;9.10;7.43;;;10.10;99.90;;;9.91;92.09;98504.22;4982029;28;20959;-70
2022/11/02 03:36:49;;;;;;;7.67;6.80;;;10.10;99.90;;;9.99;91.85;98512.13;4978887;28;20529;-70
2022/11/02 03:39:22;;;;;;;8.90;7.23;;;10.10;99.90;;;10.05;91.06;98524.00;4982587;28;20455;-70
2022/11/02 03:41:52;;;;;;;8.33;7.43;;;10.10;99.90;;;10.02;91.56;98519.00;4984051;28;20773;-70
2022/11/02 03:44:24;;;;;;;8.97;6.57;;;10.10;99.90;;;10.01;91.72;98533.53;4978502;28;20463;-70
2022/11/02 03:46:58;;;;;;;9.77;6.20;;;10.10;99.90;;;9.95;91.52;98523.56;4974354;28;20462;-69
2022/11/02 03:49:28;;;;;;;7.97;6.77;;;10.00;99.90;;;9.95;90.26;98537.06;4984516;28;20495;-70
2022/11/02 03:52:00;;;;;;;10.10;6.40;;;10.00;99.90;;;9.83;90.82;98532.19;4980774;28;20464;-70
2022/11/02 03:54:44;;;;;;;9.83;7.60;;;9.90;99.90;;;9.94;89.82;98535.38;4986228;28;21040;-71
2022/11/02 03:57:19;;;;;;;7.10;6.40;;;9.90;99.90;;;9.89;89.91;98526.00;4968120;28;20487;-68
2022/11/02 03:59:46;;;;;;;9.83;7.27;;;9.90;99.90;;;9.95;90.60;98534.34;4975838;28;20465;-69
2022/11/02 04:02:16;;;;;;;8.40;6.60;;;9.90;99.90;;;9.89;90.86;98519.78;4981728;28;20523;-71
2022/11/02 04:04:52;;;;;;;9.80;6.83;;;10.00;99.90;;;9.81;90.77;98528.88;4966620;28;20473;-71
2022/11/02 04:07:24;;;;;;;8.07;7.27;;;10.00;99.90;;;9.72;91.29;98532.75;4979599;28;20463;-70
2022/11/02 04:09:52;;;;;;;12.00;7.90;;;9.90;99.90;;;9.75;91.65;98543.97;4983761;28;20468;-70
2022/11/02 04:15:05;;;;;;;11.13;6.33;;;9.80;99.90;;;9.66;90.78;98538.94;4982114;28;20597;-71
2022/11/02 04:20:19;;;;;;;11.23;6.10;;;9.80;99.90;;;9.53;91.29;98543.19;4973420;28;20469;-70
2022/11/02 04:25:31;;;;;;;8.43;7.20;;;9.70;99.90;;;9.50;92.07;98547.13;4966766;28;20471;-70
2022/11/02 04:28:07;;;;;;;7.33;6.30;;;9.60;99.90;;;9.53;92.12;98543.19;4984938;28;20465;-69
2022/11/02 04:30:34;;;;;;;12.50;6.93;;;9.70;99.90;;;9.53;92.05;98547.75;4984959;28;20465;-71
2022/11/02 04:35:48;;;;;;;11.73;7.30;;;9.70;99.90;;;9.53;91.21;98548.59;4967079;28;20883;-71
2022/11/02 04:43:41;;;;;;;8.60;6.00;;;9.60;99.90;;;9.40;91.49;98551.19;4964964;28;20456;-70
2022/11/02 04:46:09;;;;;;;9.23;7.03;;;9.60;99.90;;;9.46;92.00;98551.25;4965636;28;20789;-70
2022/11/02 04:48:37;;;;;;;8.63;6.63;;;9.50;99.90;;;9.28;91.33;98534.72;4982222;28;20501;-71
2022/11/02 04:51:05;;;;;;;9.10;6.60;;;9.50;99.90;;;9.33;91.39;98543.03;4984683;28;20473;-69
2022/11/02 04:53:32;;;;;;;13.60;6.80;;;9.50;99.90;;;9.41;91.42;98550.16;4987205;28;20472;-70
2022/11/02 04:55:59;;;;;;;7.77;6.97;;;9.50;99.90;;;9.24;91.26;98544.19;4969011;28;20461;-71
2022/11/02 04:58:27;;;;;;;7.43;6.70;;;9.40;99.90;;;9.27;91.14;98554.59;4974718;28;20547;-70
2022/11/02 05:00:54;;;;;;;8.37;7.17;;;9.40;99.90;;;9.16;91.11;98558.63;4977847;28;20465;-70
2022/11/02 05:03:21;;;;;;;12.07;6.37;;;9.40;99.90;;;9.26;91.12;98553.75;4970279;28;20839;-70
2022/11/02 05:05:54;;;;;;;12.93;7.80;;;9.30;99.90;;;9.22;90.64;98563.28;4978502;28;20520;-70
2022/11/02 05:08:21;;;;;;;8.33;6.70;;;9.30;99.90;;;9.25;91.46;98562.88;4973511;28;20543;-70
2022/11/02 05:10:49;;;;;;;8.27;6.70;;;9.30;99.90;;;9.23;91.98;98548.75;4989459;28;20466;-71
2022/11/02 05:13:16;;;;;;;11.20;7.97;;;9.40;99.90;;;9.23;90.44;98562.25;4963204;28;20453;-70
2022/11/02 05:15:43;;;;;;;8.90;7.43;;;9.40;99.90;;;9.22;90.65;98565.97;4983619;28;20469;-70
2022/11/02 05:18:11;;;;;;;8.60;7.03;;;9.30;99.90;;;9.18;90.44;98564.69;4965840;28;20491;-70
2022/11/02 05:20:38;;;;;;;7.00;6.20;;;9.30;99.90;;;9.05;91.49;98568.94;4973150;28;20465;-69
2022/11/02 05:23:07;;;;;;;9.87;6.83;;;9.30;99.90;;;9.12;90.83;98568.16;4982864;28;20464;-69
2022/11/02 05:25:34;;;;;;;8.50;6.87;;;9.20;99.90;;;9.09;90.63;98553.19;4983743;28;20872;-71
2022/11/02 05:28:01;;;;;;;8.10;7.40;;;9.20;99.90;;;8.95;91.32;98560.31;4980325;28;21152;-70
2022/11/02 05:30:29;;;;;;;9.43;6.43;;;9.20;99.90;;;9.12;90.47;98565.44;4973243;28;20460;-72
2022/11/02 05:32:57;;;;;;;7.93;7.00;;;9.20;99.90;;;9.14;90.54;98566.09;4972816;28;20466;-70
2022/11/02 05:35:24;;;;;;;7.37;6.13;;;9.20;99.90;;;9.05;89.42;98562.69;4981338;28;20464;-69
2022/11/02 05:37:55;;;;;;;7.10;6.40;;;9.10;99.90;;;8.99;89.66;98561.59;4972167;28;20904;-70
2022/11/02 05:40:23;;;;;;;7.30;6.33;;;9.10;99.90;;;9.63;91.40;98570.69;4982198;28;20467;-68
2022/11/02 05:42:50;;;;;;;15.13;6.23;;;9.50;99.90;;;10.65;92.44;98572.09;4984802;28;21074;-68
2022/11/02 05:45:17;;;;;;;10.63;7.27;;;10.20;99.90;;;11.25;91.27;98576.81;4968570;28;20468;-69
2022/11/02 05:47:44;;;;;;;7.53;5.83;;;10.90;99.90;;;11.37;87.30;98566.19;4963288;28;20570;-69
2022/11/02 05:50:12;;;;;;;7.90;6.07;;;11.20;99.80;;;11.97;83.46;98573.47;4989279;28;20467;-67
2022/11/02 05:52:39;;;;;;;5.73;5.23;;;11.70;96.30;;;11.34;79.29;98578.28;4987420;28;20907;-68
2022/11/02 05:55:08;;;;;;;5.63;5.13;;;11.50;90.60;;;11.34;79.94;98581.00;4963983;28;20467;-69
2022/11/02 05:57:38;;;;;;;7.00;5.63;;;11.30;91.70;;;11.12;79.54;98572.22;4983054;28;20557;-69
2022/11/02 06:00:07;;;;;;;7.83;5.10;;;11.30;90.80;;;11.44;80.02;98579.72;4978961;28;20468;-68
2022/11/02 06:02:34;;;;;;;6.20;5.27;;;11.30;91.80;;;11.20;80.98;98584.72;4974395;28;20467;-71
2022/11/02 06:05:01;;;;;;;6.03;5.43;;;11.00;92.10;;;10.37;79.30;98575.69;4980241;28;20860;-68
2022/11/02 06:07:29;;;;;;;8.37;4.53;;;10.60;90.00;;;9.85;81.72;98585.97;4981887;28;20846;-68
2022/11/02 06:09:56;;;;;;;10.47;5.37;;;10.10;91.40;;;9.64;82.65;98591.22;4960223;28;21638;-68
2022/11/02 06:12:23;;;;;;;5.70;5.10;;;9.70;93.00;;;9.23;85.73;98604.53;4958380;28;20825;-69
2022/11/02 06:14:52;;;;;;;9.63;6.30;;;9.40;95.00;;;8.96;85.65;98564.66;4978417;28;20518;-77
2022/11/02 06:17:19;;;;;;;6.13;5.37;;;9.30;96.90;;;9.03;86.45;98600.63;4978863;28;20464;-68
2022/11/02 06:19:46;;;;;;;7.40;5.73;;;9.20;97.00;;;8.98;86.85;98605.75;4985050;28;20482;-69
2022/11/02 06:22:14;;;;;;;6.63;5.77;;;9.10;98.50;;;9.03;87.34;98603.31;4978199;28;20469;-67
2022/11/02 06:24:41;;;;;;;8.00;5.13;;;9.10;99.00;;;8.95;87.81;98603.44;4978550;28;20462;-67
2022/11/02 06:27:10;;;;;;;9.97;5.70;;;9.00;99.70;;;8.94;87.38;98599.06;4984188;28;20862;-69
2022/11/02 06:29:37;;;;;;;8.13;5.53;;;9.00;99.80;;;8.88;88.08;98607.94;4965978;28;20456;-67
2022/11/02 06:32:06;;;;;;;6.77;5.90;;;9.00;99.90;;;8.90;88.17;98611.25;4981472;28;21015;-67
2022/11/02 06:34:33;;;;;;;5.70;5.17;;;9.00;99.90;;;8.94;89.13;98609.84;4965277;28;20471;-67
2022/11/02 06:37:00;;;;;;;7.33;5.73;;;9.00;99.90;;;8.95;88.49;98621.44;4978309;28;20462;-67
2022/11/02 06:39:27;;;;;;;6.97;4.93;;;9.00;99.90;;;8.95;88.71;98622.28;4979310;28;20482;-68
2022/11/02 06:41:54;;;;;;;7.40;5.60;;;9.10;99.90;;;9.00;88.49;98629.81;4965385;28;20568;-67
2022/11/02 06:44:22;;;;;;;7.63;5.30;;;9.10;99.90;;;9.14;87.44;98634.34;4975024;28;20454;-67
2022/11/02 06:46:50;;;;;;;6.93;5.20;;;9.10;99.90;;;9.17;87.27;98630.41;4979463;28;20988;-67
2022/11/02 06:49:18;;;;;;;10.80;6.17;;;9.20;99.90;;;9.30;89.03;98630.53;4965357;28;20472;-67
2022/11/02 06:51:46;;;;;;;8.20;6.80;;;9.30;99.90;;;9.27;86.88;98641.72;4978854;28;20982;-67
2022/11/02 06:54:13;;;;;;;8.70;5.27;;;9.30;99.00;;;9.39;86.24;98638.50;4982251;28;20932;-67
2022/11/02 06:56:40;;;;;;;7.70;5.43;;;9.40;97.90;;;9.46;86.13;98639.41;4977875;28;20483;-67
2022/11/02 06:59:07;;;;;;;9.10;5.10;;;9.40;97.80;;;9.34;86.26;98641.78;4961623;28;20476;-67
2022/11/02 07:01:35;;;;;;;9.80;4.57;;;9.40;97.50;;;9.50;85.95;98644.22;4979009;28;20460;-68
2022/11/02 07:04:02;;;;;;;7.90;5.70;;;9.50;97.20;;;9.08;86.46;98594.63;4968333;28;20960;-67
2022/11/02 07:06:31;;;;;;;7.30;4.60;;;9.40;97.30;;;9.39;86.54;98649.31;4976320;28;20476;-67
2022/11/02 07:08:58;;;;;;;7.40;5.47;;;9.40;97.50;;;9.53;86.51;98651.09;4976949;28;20456;-66
2022/11/02 07:11:25;;;;;;;8.87;5.13;;;9.50;97.70;;;9.55;85.99;98657.13;4980790;28;20474;-67
2022/11/02 07:13:52;;;;;;;9.23;5.10;;;9.50;96.90;;;9.60;86.81;98665.47;4982536;28;20476;-66
2022/11/02 07:16:20;;;;;;;6.30;4.30;;;9.50;98.10;;;9.64;86.35;98664.09;4976869;28;20530;-68
2022/11/02 07:18:47;;;;;;;10.50;5.90;;;9.60;97.60;;;9.59;85.78;98669.19;4980972;28;20496;-67
2022/11/02 07:21:14;;;;;;;10.10;5.37;;;9.70;95.80;;;9.65;85.03;98673.00;4968153;28;21112;-67
2022/11/02 07:23:43;;;;;;;8.00;5.23;;;9.70;95.80;;;9.55;84.92;98675.16;4985507;28;20483;-69
2022/11/02 07:26:10;;;;;;;6.90;5.20;;;9.60;95.80;;;9.69;84.57;98674.28;4964177;28;21396;-67
2022/11/02 07:28:37;;;;;;;7.73;4.67;;;9.70;95.90;;;9.74;85.33;98679.09;4987805;28;20458;-66
2022/11/02 07:31:05;;;;;;;5.10;4.60;;;9.70;95.80;;;9.81;83.96;98679.16;4971013;28;21054;-67
2022/11/02 07:33:32;;;;;;;11.27;5.53;;;9.80;95.30;;;9.80;84.24;98683.72;4986295;28;21108;-66
2022/11/02 07:36:02;;;;;;;7.30;5.90;;;9.80;95.00;;;9.43;84.87;98631.69;4965887;28;20775;-65
2022/11/02 07:38:29;;;;;;;8.80;5.27;;;9.80;94.80;;;9.84;84.77;98684.16;4963324;28;20806;-67
2022/11/02 07:40:58;;;;;;;6.40;4.43;;;9.90;94.80;;;10.03;82.70;98675.41;4982588;28;21035;-66
2022/11/02 07:43:25;;;;;;;12.03;5.40;;;10.10;93.30;;;10.23;82.17;98679.25;4983533;28;20510;-65
2022/11/02 07:45:52;;;;;;;7.60;4.83;;;10.30;92.70;;;10.42;81.14;98678.63;4977827;28;20472;-67
2022/11/02 07:48:19;;;;;;;4.93;4.53;;;10.40;92.20;;;10.60;80.58;98679.97;4980767;28;21347;-67
2022/11/02 07:50:47;;;;;;;7.53;4.50;;;10.50;91.80;;;10.61;80.89;98676.22;4983281;28;20987;-71
2022/11/02 07:53:14;;;;;;;10.40;5.00;;;10.60;91.50;;;10.55;80.66;98682.44;4976905;28;20607;-68
2022/11/02 07:55:41;;;;;;;7.67;5.10;;;10.50;91.60;;;10.35;81.10;98685.78;4978388;28;20471;-67
2022/11/02 07:58:13;;;;;;;9.10;4.80;;;10.40;91.90;;;10.44;80.98;98684.66;4982665;28;20573;-67
2022/11/02 08:00:41;;;;;;;6.77;4.10;;;10.40;92.00;;;10.91;80.01;98673.25;4982508;28;21009;-67
2022/11/02 08:03:10;;;;;;;5.57;4.30;;;10.70;91.80;;;11.24;78.43;98682.53;4982533;28;20472;-66
2022/11/02 08:05:41;;;;;;;6.60;4.10;;;11.10;90.90;;;11.41;77.09;98682.97;4985012;28;20540;-66
2022/11/02 08:08:12;;;;;;;6.20;4.20;;;11.30;90.00;;;11.25;77.63;98689.59;4974991;28;20470;-67
2022/11/02 08:10:40;;;;;;;5.60;3.70;;;11.30;89.30;;;11.44;76.80;98688.81;4982969;28;20550;-67
2022/11/02 08:13:07;;;;;;;8.03;4.17;;;11.50;88.80;;;11.64;76.54;98693.41;4980018;28;20473;-67
2022/11/02 08:15:36;;;;;;;4.20;3.57;;;11.60;88.80;;;11.62;76.13;98690.94;4981012;28;20473;-67
2022/11/02 08:18:05;;;;;;;7.17;3.83;;;11.70;88.10;;;11.86;75.54;98695.97;4966296;28;20510;-66
2022/11/02 08:20:35;;;;;;;9.43;4.03;;;11.90;87.60;;;12.02;74.39;98701.00;4978874;28;20861;-67
2022/11/02 08:23:03;;;;;;;10.03;3.63;;;12.00;87.00;;;12.25;73.59;98691.59;4963006;28;20462;-67
2022/11/02 08:25:31;;;;;;;8.43;3.77;;;12.10;86.50;;;12.26;73.64;98689.72;4976248;28;20546;-67
2022/11/02 08:27:59;;;;;;;8.50;3.67;;;12.20;86.30;;;12.18;73.75;98691.59;4982676;28;22190;-68
2022/11/02 08:30:28;;;;;;;6.50;3.40;;;12.20;86.20;;;12.40;73.27;98677.84;4982283;28;21041;-67
2022/11/02 08:33:02;;;;;;;6.83;3.50;;;12.30;86.20;;;12.96;71.53;98694.56;4963639;28;20459;-67
2022/11/02 08:35:29;;;;;;;5.13;3.33;;;12.70;85.70;;;13.31;69.30;98705.06;4979808;28;20471;-67
2022/11/02 08:37:58;;;;;;;4.33;3.43;;;13.00;84.70;;;13.04;68.71;98641.94;4981896;28;20535;-67
2022/11/02 08:40:27;;;;;;;5.67;2.97;;;13.30;83.70;;;13.03;69.22;98706.22;4965160;28;20471;-67
2022/11/02 08:42:58;;;;;;;6.73;2.70;;;13.30;83.00;;;13.41;68.79;98714.59;4979545;28;20564;-67
2022/11/02 08:45:26;;;;;;;3.27;2.97;;;13.30;83.30;;;13.55;68.28;98713.50;4978412;28;20471;-67
2022/11/02 08:47:54;;;;;;;9.33;3.83;;;13.60;82.80;;;13.81;67.23;98710.88;4981082;28;20467;-66
2022/11/02 08:50:23;;;;;;;4.10;2.50;;;13.70;82.80;;;13.96;66.50;98714.09;4979177;28;20459;-67
2022/11/02 08:52:50;;;;;;;3.77;2.80;;;13.80;82.50;;;14.03;66.10;98725.72;4977141;28;20502;-67
2022/11/02 08:55:18;;;;;;;3.60;2.57;;;13.90;81.90;;;13.75;67.03;98723.44;4977971;28;20502;-67
2022/11/02 08:57:47;;;;;;;7.80;2.67;;;13.80;82.00;;;13.64;67.62;98715.97;4978534;28;20471;-66
2022/11/02 09:00:16;;;;;;;4.80;2.13;;;13.80;82.00;;;13.32;69.04;98725.72;4980809;28;20824;-67
2022/11/02 09:02:44;;;;;;;3.87;2.33;;;13.60;82.70;;;13.10;71.10;98722.47;4981311;28;20467;-67
2022/11/02 09:05:11;;;;;;;5.27;2.50;;;13.30;83.80;;;12.98;70.83;98719.59;4975178;28;20472;-67
2022/11/02 09:07:40;;;;;;;4.00;2.07;;;13.10;83.50;;;12.78;71.49;98732.38;4975942;28;20460;-68
2022/11/02 09:10:08;;;;;;;5.70;2.10;;;13.00;83.80;;;12.88;70.83;98725.44;4980855;28;20858;-67
2022/11/02 09:12:35;;;;;;;6.20;2.07;;;13.00;83.80;;;12.73;71.04;98709.44;4980827;28;20467;-67
2022/11/02 09:15:03;;;;;;;6.10;2.40;;;12.90;83.70;;;12.89;71.54;98738.00;4975058;28;20863;-69
2022/11/02 09:17:30;;;;;;;9.60;1.70;;;12.90;84.00;;;12.65;71.02;98735.97;4979231;28;20474;-66
2022/11/02 09:19:58;;;;;;;7.43;2.30;;;12.80;83.60;;;12.69;72.18;98740.75;4975314;28;20482;-66
2022/11/02 09:22:25;;;;;;;4.90;2.10;;;12.70;84.10;;;13.03;71.01;98737.94;4981674;28;20466;-69
2022/11/02 09:24:54;;;;;;;6.70;2.17;;;12.90;84.30;;;13.28;69.28;98701.94;4978678;28;20547;-69
2022/11/02 09:27:21;;;;;;;8.43;2.57;;;13.20;83.80;;;13.47;68.92;98740.94;4981848;28;20471;-67
2022/11/02 09:29:48;;;;;;;3.40;2.23;;;13.40;83.20;;;13.67;68.62;98734.53;4964031;28;20452;-66
2022/11/02 09:32:17;;;;;;;4.30;1.57;;;13.50;83.10;;;13.53;67.99;98737.34;4977866;28;20518;-67
2022/11/02 09:34:46;;;;;;;5.47;1.90;;;13.60;82.50;;;13.44;68.80;98730.50;4958116;28;20450;-66
2022/11/02 09:37:13;;;;;;;4.60;2.20;;;13.50;82.90;;;13.45;68.61;98729.47;4978300;28;20460;-67
2022/11/02 09:39:40;;;;;;;4.77;2.13;;;13.40;82.90;;;13.42;68.82;98741.53;4977080;28;20570;-65
2022/11/02 09:42:18;;;;;;;4.70;2.00;;;13.40;83.00;;;13.78;67.96;98739.28;4961736;28;20466;-70
2022/11/02 09:44:49;;;;;;;3.90;1.90;;;13.60;82.90;;;13.55;67.95;98735.22;4977231;28;20517;-66
2022/11/02 09:47:17;;;;;;;5.53;2.17;;;13.60;82.50;;;12.93;68.11;98621.75;4978412;28;20468;-68
2022/11/02 09:49:45;;;;;;;4.00;1.87;;;13.60;82.60;;;14.14;66.22;98735.06;4980957;28;20824;-68
2022/11/02 09:52:20;;;;;;;4.60;1.90;;;13.90;82.10;;;14.45;64.24;98743.38;4961784;28;20512;-67
2022/11/02 09:54:53;;;;;;;7.30;1.93;;;14.30;81.00;;;14.69;63.75;98735.41;4979918;28;20812;-66
2022/11/02 09:57:28;;;;;;;4.23;1.90;;;14.50;80.60;;;14.53;63.70;98739.53;4977286;28;20808;-67
2022/11/02 09:59:56;;;;;;;5.67;2.07;;;14.50;80.30;;;14.40;64.45;98751.34;4961884;28;20598;-68
2022/11/02 10:02:38;;;;;;;5.60;1.87;;;14.40;80.10;;;14.73;62.93;98744.81;4962007;28;20475;-65
2022/11/02 10:05:25;;;;;;;4.80;1.80;;;14.60;79.60;;;14.22;63.31;98754.88;4961750;28;20880;-68
2022/11/02 10:08:30;;;;;;;4.03;2.10;;;14.40;79.10;;;14.01;64.14;98699.81;4955668;28;20985;-67
2022/11/02 10:11:15;;;;;;;6.73;2.17;;;14.30;79.80;;;14.24;64.05;98758.19;4977724;28;20990;-67
2022/11/02 10:13:49;;;;;;;6.10;1.90;;;14.30;79.60;;;14.15;64.80;98761.16;4973146;28;20466;-68
2022/11/02 10:16:21;;;;;;;3.87;1.40;;;14.20;79.80;;;14.12;64.86;98752.66;4962064;28;20467;-66
2022/11/02 10:18:54;;;;;;;5.10;1.83;;;14.20;79.90;;;14.26;64.28;98756.94;4973171;28;20586;-66
2022/11/02 10:21:26;;;;;;;5.20;1.93;;;14.30;79.80;;;14.17;65.04;98741.94;4962173;28;20471;-66
2022/11/02 10:23:55;;;;;;;7.70;2.40;;;14.30;79.80;;;14.41;64.11;98745.69;4976308;28;20459;-67
2022/11/02 10:26:25;;;;;;;10.00;2.07;;;14.30;79.60;;;14.58;63.15;98742.41;4978574;28;20459;-66
2022/11/02 10:28:59;;;;;;;3.13;1.87;;;14.60;79.10;;;14.84;62.87;98740.53;4963422;28;20509;-71
2022/11/02 10:31:31;;;;;;;8.00;1.87;;;14.80;79.30;;;14.95;62.31;98742.50;4960294;28;20467;-72
2022/11/02 10:34:17;;;;;;;4.10;1.63;;;14.80;78.80;;;14.73;61.89;98751.06;4959653;28;20495;-69
2022/11/02 10:36:59;;;;;;;4.10;1.73;;;15.00;78.00;;;14.59;62.74;98744.06;4975392;28;20474;-67
2022/11/02 10:39:35;;;;;;;4.60;1.87;;;14.70;78.50;;;14.98;61.84;98747.47;4976703;28;20485;-67
2022/11/02 10:42:25;;;;;;;3.60;2.00;;;14.80;78.60;;;14.48;62.93;98742.09;4978414;28;20472;-67
2022/11/02 10:45:17;;;;;;;5.90;1.93;;;14.60;78.40;;;14.48;63.33;98742.09;4978834;28;20471;-68
2022/11/02 10:47:58;;;;;;;6.43;1.90;;;14.60;78.80;;;14.68;62.10;98737.31;4977299;28;20484;-66
2022/11/02 10:50:47;;;;;;;4.80;1.93;;;14.70;78.60;;;14.72;62.30;98740.44;4965477;28;20480;-67
2022/11/02 10:53:17;;;;;;;7.17;1.87;;;14.60;78.30;;;14.76;62.18;98735.38;4964040;28;20508;-70